Time;durP1;ratioP1;P1;durP2;ratioP2;P2;SDS_P1;SDS_P2;PMS_P1;PMS_P2;Temp;Humidity;BMP_temperature;BMP_pressure;BME280_temperature;BME280_humidity;BME280_pressure;Samples;Min_cycle;Max_cycle;Signal;HPM_P1;HPM_P2
2022/03/17 00:00:34;;;;;;;21.42;12.57;;;11.80;99.90;;;;;;5027899;28;20041;-63
2022/03/17 00:03:01;;;;;;;26.55;18.02;;;11.80;99.90;;;;;;4989399;28;20074;-64
2022/03/17 00:05:29;;;;;;;28.02;18.45;;;11.90;99.90;;;;;;5011349;28;20492;-63
2022/03/17 00:07:57;;;;;;;26.58;17.15;;;11.90;99.90;;;;;;5003673;28;20034;-63
2022/03/17 00:10:25;;;;;;;27.17;16.02;;;12.00;99.90;;;;;;5023099;28;20490;-63
2022/03/17 00:12:52;;;;;;;29.23;16.52;;;12.00;99.90;;;;;;5019453;28;20038;-63
2022/03/17 00:15:20;;;;;;;29.02;16.85;;;12.00;99.90;;;;;;5016367;28;20103;-63
2022/03/17 00:17:47;;;;;;;21.95;15.00;;;12.00;99.90;;;;;;5013280;28;20071;-63
2022/03/17 00:20:15;;;;;;;23.48;14.30;;;12.00;99.90;;;;;;5032864;28;20050;-63
2022/03/17 00:22:42;;;;;;;22.67;15.00;;;12.00;99.90;;;;;;5042400;28;20033;-63
2022/03/17 00:25:11;;;;;;;22.55;15.70;;;12.00;99.90;;;;;;5033497;28;20044;-63
2022/03/17 00:27:38;;;;;;;25.23;15.38;;;12.00;99.90;;;;;;5025959;28;20088;-64
2022/03/17 00:30:08;;;;;;;33.22;17.83;;;12.00;99.90;;;;;;5031895;28;20041;-63
2022/03/17 00:32:38;;;;;;;21.67;15.38;;;12.00;99.90;;;;;;4985342;28;20204;-62
2022/03/17 00:37:54;;;;;;;25.73;17.73;;;12.00;99.90;;;;;;5029868;28;20132;-63
2022/03/17 00:40:23;;;;;;;35.38;22.45;;;12.00;99.90;;;;;;5032835;28;20045;-63
2022/03/17 00:42:51;;;;;;;28.95;20.92;;;12.00;99.90;;;;;;5019429;28;20041;-63
2022/03/17 00:45:19;;;;;;;26.70;17.27;;;12.00;99.90;;;;;;5020203;28;20574;-63
2022/03/17 00:47:46;;;;;;;34.97;16.83;;;11.80;99.90;;;;;;5025227;28;20049;-63
2022/03/17 00:50:14;;;;;;;24.48;15.10;;;11.70;99.90;;;;;;5013550;28;20051;-63
2022/03/17 00:52:41;;;;;;;22.30;14.13;;;11.70;99.90;;;;;;5026099;28;20045;-63
2022/03/17 00:55:09;;;;;;;23.35;13.77;;;11.70;99.90;;;;;;5010174;28;20044;-63
2022/03/17 00:57:37;;;;;;;23.00;14.77;;;11.70;99.90;;;;;;5027933;28;20587;-63
2022/03/17 01:00:05;;;;;;;23.95;15.90;;;11.70;99.90;;;;;;5015430;28;20048;-63
2022/03/17 01:02:33;;;;;;;25.40;15.90;;;11.70;99.90;;;;;;5031951;28;20123;-63
2022/03/17 01:05:01;;;;;;;29.42;17.08;;;11.70;99.90;;;;;;5042525;28;20037;-63
2022/03/17 01:07:29;;;;;;;29.00;18.25;;;11.70;99.90;;;;;;5010547;28;20367;-63
2022/03/17 01:09:56;;;;;;;25.58;17.02;;;11.80;99.90;;;;;;5027164;28;20052;-63
2022/03/17 01:12:24;;;;;;;31.08;20.85;;;11.90;99.90;;;;;;5027269;28;20034;-63
2022/03/17 01:14:51;;;;;;;34.28;20.67;;;11.90;99.90;;;;;;5032469;28;20132;-64
2022/03/17 01:17:19;;;;;;;26.23;19.63;;;11.90;99.90;;;;;;5036975;28;20048;-63
2022/03/17 01:19:46;;;;;;;26.20;17.35;;;11.90;99.90;;;;;;5013100;28;20060;-64
2022/03/17 01:22:14;;;;;;;33.42;19.05;;;11.90;99.90;;;;;;5030256;28;20038;-64
2022/03/17 01:24:42;;;;;;;34.72;21.15;;;12.00;99.90;;;;;;4998565;28;20048;-65
2022/03/17 01:27:10;;;;;;;19.10;11.95;;;12.00;99.90;;;;;;5024198;28;20425;-65
2022/03/17 01:29:40;;;;;;;19.50;11.82;;;11.90;99.90;;;;;;5032703;28;20042;-63
2022/03/17 01:32:08;;;;;;;16.92;10.68;;;11.90;99.90;;;;;;5011432;28;20172;-63
2022/03/17 01:34:36;;;;;;;15.93;9.82;;;11.90;99.90;;;;;;5025989;28;20046;-63
2022/03/17 01:37:03;;;;;;;18.33;11.00;;;12.00;99.90;;;;;;5015685;28;20442;-63
2022/03/17 01:39:31;;;;;;;18.70;11.73;;;11.90;99.90;;;;;;5027427;28;20461;-64
2022/03/17 01:42:02;;;;;;;21.58;13.55;;;12.00;99.90;;;;;;5030537;28;20403;-64
2022/03/17 01:44:29;;;;;;;17.45;10.88;;;12.00;99.90;;;;;;4994560;28;20103;-64
2022/03/17 01:49:43;;;;;;;21.63;11.68;;;12.10;99.90;;;;;;5040041;28;20041;-63
2022/03/17 01:52:11;;;;;;;16.58;10.43;;;12.20;99.90;;;;;;5010557;28;20045;-62
2022/03/17 01:54:39;;;;;;;17.23;9.60;;;12.20;99.90;;;;;;5002467;28;20099;-62
2022/03/17 01:57:08;;;;;;;12.48;9.32;;;12.20;99.90;;;;;;5028943;28;20613;-63
2022/03/17 01:59:38;;;;;;;16.00;9.45;;;12.30;99.90;;;;;;5027831;28;20051;-63
2022/03/17 02:02:12;;;;;;;13.75;9.07;;;12.30;99.90;;;;;;5028958;28;20411;-63
2022/03/17 02:04:41;;;;;;;16.98;9.73;;;12.40;99.90;;;;;;5014229;28;20056;-63
2022/03/17 02:07:09;;;;;;;25.00;10.35;;;12.40;99.90;;;;;;5019365;28;20144;-63
2022/03/17 02:09:37;;;;;;;17.50;11.25;;;12.40;99.90;;;;;;5003473;28;20084;-63
2022/03/17 02:15:00;;;;;;;16.92;11.15;;;12.40;99.90;;;;;;5003604;28;20096;-63
2022/03/17 02:17:31;;;;;;;16.15;9.85;;;12.40;99.90;;;;;;5003304;28;20049;-63
2022/03/17 02:20:01;;;;;;;12.32;9.45;;;12.40;99.90;;;;;;5019454;28;20037;-63
2022/03/17 02:22:29;;;;;;;16.95;8.88;;;12.40;99.90;;;;;;5019566;28;20037;-63
2022/03/17 02:27:48;;;;;;;17.70;10.02;;;12.40;99.90;;;;;;5019405;28;20438;-62
2022/03/17 02:30:18;;;;;;;16.90;10.40;;;12.40;99.90;;;;;;5019681;28;20049;-63
2022/03/17 02:32:47;;;;;;;14.18;9.32;;;12.40;99.90;;;;;;5002837;28;20041;-63
2022/03/17 02:35:22;;;;;;;16.25;9.40;;;12.40;99.90;;;;;;5002580;28;20045;-62
2022/03/17 02:37:51;;;;;;;19.80;9.30;;;12.30;99.90;;;;;;5036811;28;20060;-63
2022/03/17 02:40:18;;;;;;;10.38;7.68;;;12.20;99.90;;;;;;5019194;28;20091;-63
2022/03/17 02:42:46;;;;;;;17.05;8.38;;;12.20;99.90;;;;;;5002800;28;20049;-63
2022/03/17 02:45:14;;;;;;;13.95;8.98;;;12.20;99.90;;;;;;5002606;28;20415;-63
2022/03/17 02:47:42;;;;;;;15.68;10.30;;;12.20;99.90;;;;;;5018724;28;20050;-63
2022/03/17 02:50:10;;;;;;;15.50;8.93;;;12.30;99.90;;;;;;5002600;28;20052;-63
2022/03/17 02:52:39;;;;;;;19.90;9.32;;;12.30;99.90;;;;;;5019018;28;20041;-63
2022/03/17 02:55:10;;;;;;;13.10;8.07;;;12.30;99.90;;;;;;5035198;28;20497;-62
2022/03/17 02:57:39;;;;;;;12.10;7.40;;;12.30;99.90;;;;;;5002380;28;20049;-62
2022/03/17 03:00:09;;;;;;;12.85;7.65;;;12.20;99.90;;;;;;5002608;28;20376;-63
2022/03/17 03:02:38;;;;;;;14.32;8.02;;;12.20;99.90;;;;;;5018820;28;20495;-63
2022/03/17 03:05:07;;;;;;;14.00;8.65;;;12.20;99.90;;;;;;5002264;28;20095;-62
2022/03/17 03:07:34;;;;;;;15.77;8.13;;;12.20;99.90;;;;;;5036075;28;20041;-63
2022/03/17 03:10:03;;;;;;;13.25;8.00;;;12.20;99.90;;;;;;5018648;28;20141;-63
2022/03/17 03:12:31;;;;;;;12.90;8.80;;;12.20;99.90;;;;;;5018543;28;20033;-63
2022/03/17 03:14:59;;;;;;;15.38;8.52;;;12.20;99.90;;;;;;5018146;28;20123;-63
2022/03/17 03:17:29;;;;;;;12.00;7.70;;;12.20;99.90;;;;;;5018713;28;20050;-62
2022/03/17 03:19:57;;;;;;;16.85;10.23;;;12.20;99.90;;;;;;4986004;28;20510;-62
2022/03/17 03:22:29;;;;;;;20.00;9.77;;;12.20;99.90;;;;;;5035051;28;20136;-63
2022/03/17 03:24:57;;;;;;;20.67;9.20;;;12.20;99.90;;;;;;5017552;28;20133;-63
2022/03/17 03:27:27;;;;;;;15.60;8.90;;;12.20;99.90;;;;;;5018118;28;20056;-62
2022/03/17 03:29:56;;;;;;;15.63;7.45;;;12.10;99.90;;;;;;5002181;28;20522;-62
2022/03/17 03:32:27;;;;;;;16.95;7.78;;;12.10;99.90;;;;;;5002345;28;20641;-63
2022/03/17 03:34:57;;;;;;;11.55;6.97;;;12.10;99.90;;;;;;5017992;28;20061;-62
2022/03/17 03:37:24;;;;;;;12.93;7.45;;;12.10;99.90;;;;;;5017971;28;20045;-63
2022/03/17 03:39:54;;;;;;;10.80;6.88;;;12.10;99.90;;;;;;5017984;28;20077;-62
2022/03/17 03:42:23;;;;;;;12.43;7.53;;;12.00;99.90;;;;;;5018216;28;20060;-63
2022/03/17 03:44:51;;;;;;;9.07;5.85;;;12.00;99.90;;;;;;5018101;28;20041;-62
2022/03/17 03:47:19;;;;;;;11.57;6.47;;;12.00;99.90;;;;;;5035539;28;20049;-62
2022/03/17 03:49:47;;;;;;;12.95;6.53;;;12.00;99.90;;;;;;5035831;28;20395;-62
2022/03/17 03:52:17;;;;;;;11.20;7.50;;;12.00;99.90;;;;;;5035628;28;20052;-62
2022/03/17 03:54:44;;;;;;;11.18;7.20;;;12.00;99.90;;;;;;5018023;28;20053;-62
2022/03/17 03:57:12;;;;;;;19.95;9.93;;;12.00;99.90;;;;;;5035345;28;20116;-62
2022/03/17 03:59:39;;;;;;;15.85;8.57;;;12.00;99.90;;;;;;5035526;28;20570;-63
2022/03/17 04:02:09;;;;;;;15.05;9.77;;;12.00;99.90;;;;;;5001333;28;20483;-63
2022/03/17 04:04:41;;;;;;;18.27;8.48;;;12.00;99.90;;;;;;5017642;28;20041;-62
2022/03/17 04:07:12;;;;;;;18.42;9.48;;;12.00;99.90;;;;;;5035341;28;20041;-63
2022/03/17 04:09:42;;;;;;;18.40;10.35;;;12.00;99.90;;;;;;5035015;28;20041;-63
2022/03/17 04:12:14;;;;;;;17.10;9.20;;;12.00;99.90;;;;;;5017791;28;20079;-63
2022/03/17 04:14:41;;;;;;;16.98;9.30;;;12.00;99.90;;;;;;5017331;28;20052;-63
2022/03/17 04:17:11;;;;;;;13.32;8.75;;;12.10;99.90;;;;;;5013723;28;20406;-63
2022/03/17 04:19:41;;;;;;;17.13;8.45;;;12.10;99.90;;;;;;5013896;28;20042;-62
2022/03/17 04:22:09;;;;;;;13.85;8.70;;;12.00;99.90;;;;;;5014146;28;20052;-62
2022/03/17 04:24:39;;;;;;;15.48;7.82;;;12.00;99.90;;;;;;5015529;28;20042;-62
2022/03/17 04:27:07;;;;;;;10.57;7.15;;;12.00;99.90;;;;;;5013809;28;20496;-62
2022/03/17 04:29:34;;;;;;;7.45;5.72;;;12.00;99.90;;;;;;5013025;28;20041;-62
2022/03/17 04:32:02;;;;;;;27.70;7.30;;;12.00;99.90;;;;;;5014020;28;20042;-63
2022/03/17 04:34:30;;;;;;;11.57;6.25;;;11.90;99.90;;;;;;5014923;28;20045;-63
2022/03/17 04:36:57;;;;;;;10.93;5.70;;;11.90;99.90;;;;;;5014845;28;20403;-62
2022/03/17 04:39:26;;;;;;;14.68;6.07;;;11.90;99.90;;;;;;5013784;28;20185;-63
2022/03/17 04:41:53;;;;;;;9.48;5.20;;;11.90;99.90;;;;;;5014857;28;20506;-62
2022/03/17 04:44:24;;;;;;;12.18;6.95;;;11.80;99.90;;;;;;5013927;28;20137;-62
2022/03/17 04:46:52;;;;;;;9.90;6.07;;;11.90;99.90;;;;;;5013935;28;20046;-63
2022/03/17 04:49:19;;;;;;;14.60;6.55;;;11.90;99.90;;;;;;5013572;28;20046;-62
2022/03/17 04:51:47;;;;;;;13.82;6.78;;;11.80;99.90;;;;;;4997240;28;20152;-63
2022/03/17 04:54:15;;;;;;;10.70;6.72;;;11.90;99.90;;;;;;5013700;28;20080;-63
2022/03/17 04:56:43;;;;;;;13.18;7.45;;;11.80;99.90;;;;;;5014703;28;20045;-62
2022/03/17 04:59:10;;;;;;;10.60;7.18;;;11.80;99.90;;;;;;5013590;28;20518;-63
2022/03/17 05:01:38;;;;;;;13.23;7.00;;;11.80;99.90;;;;;;4997371;28;20506;-62
2022/03/17 05:04:06;;;;;;;14.77;8.40;;;11.80;99.90;;;;;;5013156;28;20503;-62
2022/03/17 05:06:34;;;;;;;11.15;7.40;;;11.80;99.90;;;;;;5013086;28;20092;-62
2022/03/17 05:09:01;;;;;;;14.10;7.40;;;11.80;99.90;;;;;;4996890;28;20048;-62
2022/03/17 05:11:29;;;;;;;10.55;7.32;;;11.80;99.90;;;;;;5014252;28;20044;-62
2022/03/17 05:13:56;;;;;;;12.10;8.77;;;11.80;99.90;;;;;;5013137;28;20049;-63
2022/03/17 05:16:24;;;;;;;12.70;9.20;;;11.80;99.90;;;;;;4996932;28;20050;-63
2022/03/17 05:18:51;;;;;;;11.10;8.75;;;11.90;99.90;;;;;;5013127;28;20054;-63
2022/03/17 05:21:19;;;;;;;16.20;9.90;;;11.90;99.90;;;;;;5014247;28;20150;-62
2022/03/17 05:23:46;;;;;;;16.15;8.55;;;11.90;99.90;;;;;;4996789;28;20054;-62
2022/03/17 05:26:14;;;;;;;15.98;8.48;;;11.90;99.90;;;;;;5013920;28;20089;-63
2022/03/17 05:28:42;;;;;;;17.88;11.25;;;12.00;99.90;;;;;;5012846;28;20041;-62
2022/03/17 05:31:10;;;;;;;15.55;10.85;;;12.00;99.90;;;;;;5013175;28;20431;-62
2022/03/17 05:33:37;;;;;;;17.20;11.02;;;12.00;99.90;;;;;;5012765;28;20044;-63
2022/03/17 05:36:05;;;;;;;22.92;13.23;;;12.10;99.90;;;;;;4996697;28;20081;-62
2022/03/17 05:38:33;;;;;;;19.92;11.73;;;12.10;99.90;;;;;;5012630;28;20048;-63
2022/03/17 05:41:00;;;;;;;20.60;12.85;;;12.10;99.90;;;;;;5012623;28;20542;-63
2022/03/17 05:43:28;;;;;;;22.50;14.05;;;12.20;99.90;;;;;;5013870;28;20046;-63
2022/03/17 05:45:55;;;;;;;25.52;14.50;;;12.20;99.90;;;;;;5013794;28;20054;-63
2022/03/17 05:48:23;;;;;;;18.05;13.30;;;12.20;99.90;;;;;;4996289;28;20050;-63
2022/03/17 05:50:50;;;;;;;23.40;15.35;;;12.20;99.90;;;;;;4996277;28;20050;-62
2022/03/17 05:53:18;;;;;;;20.08;14.25;;;12.30;99.90;;;;;;4996261;28;20447;-63
2022/03/17 05:55:45;;;;;;;26.48;15.88;;;12.40;99.90;;;;;;5012763;28;20399;-63
2022/03/17 05:58:13;;;;;;;24.00;14.45;;;12.40;99.90;;;;;;5012362;28;20049;-63
2022/03/17 06:00:41;;;;;;;23.38;15.30;;;12.50;99.90;;;;;;5013761;28;20133;-63
2022/03/17 06:03:08;;;;;;;19.70;13.05;;;12.50;99.90;;;;;;5013607;28;20534;-63
2022/03/17 06:05:36;;;;;;;33.45;13.00;;;12.60;99.90;;;;;;5013429;28;20038;-63
2022/03/17 06:08:05;;;;;;;25.77;15.30;;;12.60;99.90;;;;;;5013441;28;20077;-63
2022/03/17 06:10:33;;;;;;;21.33;14.57;;;12.70;99.90;;;;;;5013369;28;20476;-63
2022/03/17 06:13:04;;;;;;;23.63;14.25;;;12.80;99.90;;;;;;5013583;28;20436;-63
2022/03/17 06:15:33;;;;;;;34.53;18.65;;;12.80;99.90;;;;;;5012377;28;20058;-63
2022/03/17 06:18:03;;;;;;;19.52;14.75;;;12.90;99.90;;;;;;5012119;28;20088;-63
2022/03/17 06:20:33;;;;;;;22.23;14.20;;;13.00;99.90;;;;;;4995911;28;20403;-63
2022/03/17 06:23:03;;;;;;;20.40;14.13;;;13.10;99.90;;;;;;5012169;28;20050;-62
2022/03/17 06:25:32;;;;;;;25.55;14.70;;;13.10;99.90;;;;;;5012237;28;20046;-62
2022/03/17 06:28:04;;;;;;;25.35;14.55;;;13.20;99.90;;;;;;5013518;28;20038;-63
2022/03/17 06:30:31;;;;;;;20.98;14.00;;;13.30;99.90;;;;;;5012306;28;20046;-62
2022/03/17 06:33:01;;;;;;;22.13;13.82;;;13.50;99.90;;;;;;5010702;28;20124;-63
2022/03/17 06:35:29;;;;;;;20.10;13.07;;;13.60;99.90;;;;;;5024003;28;20053;-63
2022/03/17 06:37:59;;;;;;;19.05;12.45;;;13.70;99.90;;;;;;5001048;28;20490;-63
2022/03/17 06:40:28;;;;;;;19.08;13.68;;;13.80;99.90;;;;;;5012446;28;20046;-63
2022/03/17 06:42:57;;;;;;;19.85;12.75;;;14.00;99.90;;;;;;4989682;28;20053;-63
2022/03/17 06:45:25;;;;;;;18.45;12.45;;;14.10;99.90;;;;;;5021186;28;20117;-63
2022/03/17 06:47:53;;;;;;;19.58;13.32;;;14.20;99.90;;;;;;5006648;28;20046;-64
2022/03/17 06:50:21;;;;;;;20.20;13.38;;;14.40;99.90;;;;;;4994909;28;20116;-63
2022/03/17 06:52:50;;;;;;;18.23;11.57;;;14.60;99.90;;;;;;5010263;28;20528;-64
2022/03/17 06:55:19;;;;;;;18.25;13.05;;;14.80;99.90;;;;;;4980133;28;20426;-63
2022/03/17 06:57:47;;;;;;;18.67;12.45;;;15.00;99.90;;;;;;5005755;28;20058;-63
2022/03/17 07:00:17;;;;;;;19.50;12.07;;;15.20;99.90;;;;;;5023848;28;20124;-62
2022/03/17 07:02:45;;;;;;;16.75;12.15;;;15.40;99.90;;;;;;5014442;28;20045;-63
2022/03/17 07:05:13;;;;;;;20.90;11.82;;;15.50;99.90;;;;;;4998276;28;20037;-63
2022/03/17 07:07:41;;;;;;;20.73;12.80;;;15.60;99.90;;;;;;5007511;28;20407;-63
2022/03/17 07:10:09;;;;;;;18.52;12.20;;;15.80;99.90;;;;;;5012032;28;20124;-63
2022/03/17 07:12:38;;;;;;;20.98;13.82;;;16.00;99.90;;;;;;5002871;28;20042;-62
2022/03/17 07:15:06;;;;;;;17.92;12.30;;;16.20;99.90;;;;;;4995740;28;20042;-62
2022/03/17 07:17:44;;;;;;;20.38;13.05;;;16.30;99.90;;;;;;5003796;28;20054;-62
2022/03/17 07:20:14;;;;;;;18.45;12.32;;;16.40;99.90;;;;;;4998971;28;20115;-62
2022/03/17 07:22:50;;;;;;;18.75;13.65;;;16.50;99.90;;;;;;5016142;28;20380;-62
2022/03/17 07:25:18;;;;;;;;;;;16.60;99.90;;;;;;4999376;28;20084;-62
2022/03/17 07:27:47;;;;;;;18.42;11.18;;;16.70;99.90;;;;;;4998844;28;20457;-62
2022/03/17 07:30:18;;;;;;;16.98;11.93;;;16.80;99.90;;;;;;4982708;28;20085;-62
2022/03/17 07:32:55;;;;;;;19.27;12.45;;;16.90;99.90;;;;;;4982832;28;20061;-62
2022/03/17 07:35:23;;;;;;;18.17;10.27;;;17.00;99.90;;;;;;4982500;28;20065;-62
2022/03/17 07:37:50;;;;;;;13.57;9.27;;;17.10;99.80;;;;;;4982883;28;20076;-63
2022/03/17 07:40:19;;;;;;;16.30;9.93;;;17.20;99.50;;;;;;4998851;28;20069;-63
2022/03/17 07:42:46;;;;;;;18.55;10.65;;;17.20;99.30;;;;;;4998481;28;20053;-63
2022/03/17 07:45:17;;;;;;;18.10;10.15;;;17.30;99.40;;;;;;4998930;28;20042;-63
2022/03/17 07:47:51;;;;;;;17.85;10.40;;;17.40;99.40;;;;;;5015766;28;20513;-63
2022/03/17 07:50:20;;;;;;;12.45;9.18;;;17.50;99.20;;;;;;4998480;28;20054;-63
2022/03/17 07:52:48;;;;;;;11.68;7.53;;;17.60;99.00;;;;;;4998277;28;20096;-63
2022/03/17 07:55:17;;;;;;;14.43;7.53;;;17.60;98.90;;;;;;4982333;28;20168;-63
2022/03/17 07:57:45;;;;;;;14.30;7.28;;;17.70;98.80;;;;;;4998200;28;20103;-63
2022/03/17 08:00:13;;;;;;;14.93;9.52;;;17.70;98.70;;;;;;4981733;28;20053;-63
2022/03/17 08:02:42;;;;;;;12.10;7.43;;;17.80;98.80;;;;;;5014775;28;20104;-63
2022/03/17 08:05:10;;;;;;;12.18;7.88;;;17.80;98.50;;;;;;4997980;28;20120;-63
2022/03/17 08:07:38;;;;;;;9.73;6.18;;;17.80;98.50;;;;;;4998144;28;20052;-63
2022/03/17 08:10:07;;;;;;;9.65;6.43;;;17.90;98.20;;;;;;4998223;28;20046;-63
2022/03/17 08:12:35;;;;;;;9.25;5.68;;;17.90;98.20;;;;;;5015460;28;20447;-63
2022/03/17 08:15:06;;;;;;;15.23;7.60;;;18.00;98.10;;;;;;4997778;28;20053;-63
2022/03/17 08:17:34;;;;;;;9.43;5.03;;;18.10;98.00;;;;;;5015058;28;20050;-63
2022/03/17 08:20:05;;;;;;;8.35;4.78;;;18.10;97.70;;;;;;4997927;28;20076;-63
2022/03/17 08:22:34;;;;;;;8.73;5.38;;;18.10;97.40;;;;;;4997790;28;20141;-63
2022/03/17 08:25:03;;;;;;;8.68;5.50;;;18.10;97.40;;;;;;5015215;28;20137;-63
2022/03/17 08:27:31;;;;;;;11.23;5.38;;;18.10;97.20;;;;;;4981184;28;20044;-63
2022/03/17 08:29:58;;;;;;;9.93;5.85;;;18.10;97.20;;;;;;4981731;28;20046;-63
2022/03/17 08:32:26;;;;;;;15.98;6.32;;;17.90;97.10;;;;;;4981331;28;20109;-63
2022/03/17 08:34:56;;;;;;;14.10;6.85;;;17.80;97.20;;;;;;5015079;28;20403;-63
2022/03/17 08:37:24;;;;;;;10.82;6.07;;;17.70;97.20;;;;;;5014999;28;20172;-63
2022/03/17 08:39:51;;;;;;;10.77;6.78;;;17.70;97.50;;;;;;4981269;28;20050;-64
2022/03/17 08:42:19;;;;;;;10.30;6.70;;;17.70;97.60;;;;;;4997579;28;20484;-64
2022/03/17 08:44:47;;;;;;;14.10;7.70;;;17.80;97.60;;;;;;4981164;28;20046;-64
2022/03/17 08:50:00;;;;;;;10.65;6.05;;;18.00;97.20;;;;;;5005102;28;20042;-64
2022/03/17 08:52:28;;;;;;;12.27;5.82;;;18.20;96.60;;;;;;5033187;28;20388;-63
2022/03/17 08:54:58;;;;;;;10.20;6.75;;;18.20;96.40;;;;;;5034477;28;20484;-63
2022/03/17 08:57:25;;;;;;;8.93;5.93;;;18.10;96.30;;;;;;5034388;28;20041;-63
2022/03/17 08:59:53;;;;;;;10.80;6.47;;;18.00;96.70;;;;;;5033258;28;20514;-63
2022/03/17 09:02:20;;;;;;;8.65;5.85;;;18.00;96.90;;;;;;5034196;28;20065;-63
2022/03/17 09:04:48;;;;;;;8.18;5.10;;;18.10;96.90;;;;;;5022723;28;20052;-63
2022/03/17 09:07:15;;;;;;;7.95;5.15;;;18.30;96.40;;;;;;5023602;28;20160;-63
2022/03/17 09:09:45;;;;;;;14.27;5.30;;;18.40;95.90;;;;;;5033835;28;20100;-64
2022/03/17 09:12:12;;;;;;;10.18;5.50;;;18.60;95.50;;;;;;5030439;28;20399;-63
2022/03/17 09:14:40;;;;;;;10.15;5.05;;;18.80;95.00;;;;;;5008380;28;20042;-63
2022/03/17 09:17:08;;;;;;;11.70;5.95;;;18.80;94.90;;;;;;5016117;28;20499;-63
2022/03/17 09:19:37;;;;;;;8.30;4.78;;;18.70;94.50;;;;;;5022880;28;20053;-63
2022/03/17 09:22:08;;;;;;;7.38;4.22;;;18.60;94.90;;;;;;5022772;28;20119;-63
2022/03/17 09:24:37;;;;;;;7.95;5.07;;;18.50;94.50;;;;;;5032714;28;20038;-63
2022/03/17 09:27:05;;;;;;;8.98;5.18;;;18.60;94.30;;;;;;5032710;28;20049;-63
2022/03/17 09:29:32;;;;;;;7.00;4.85;;;18.50;94.10;;;;;;5030660;28;20045;-63
2022/03/17 09:32:00;;;;;;;10.23;5.43;;;18.40;93.60;;;;;;5030635;28;20049;-63
2022/03/17 09:34:31;;;;;;;7.65;5.18;;;18.40;94.00;;;;;;5032515;28;20076;-65
2022/03/17 09:36:59;;;;;;;8.80;3.78;;;18.30;93.70;;;;;;5007027;28;20144;-64
2022/03/17 09:39:43;;;;;;;6.88;4.13;;;18.30;93.60;;;;;;4993045;28;20060;-65
2022/03/17 09:42:16;;;;;;;9.00;4.20;;;18.40;93.50;;;;;;5001449;28;20037;-64
2022/03/17 09:44:46;;;;;;;10.27;4.88;;;18.60;93.70;;;;;;5032085;28;20492;-64
2022/03/17 09:47:19;;;;;;;7.47;4.35;;;18.80;93.80;;;;;;5024887;28;20113;-65
2022/03/17 09:49:53;;;;;;;6.93;4.97;;;18.80;93.70;;;;;;5019579;28;20372;-64
2022/03/17 09:52:22;;;;;;;5.80;3.08;;;18.90;93.70;;;;;;4998216;28;20038;-64
2022/03/17 09:54:52;;;;;;;6.13;3.45;;;19.10;93.50;;;;;;5032866;28;20042;-64
2022/03/17 09:57:20;;;;;;;10.00;3.85;;;19.20;92.90;;;;;;5032336;28;20547;-64
2022/03/17 09:59:49;;;;;;;5.07;3.28;;;19.30;92.70;;;;;;5023253;28;20056;-64
2022/03/17 10:02:17;;;;;;;7.57;4.03;;;19.50;92.30;;;;;;5032441;28;20049;-64
2022/03/17 10:04:46;;;;;;;7.07;3.78;;;19.60;91.70;;;;;;5032061;28;20038;-64
2022/03/17 10:07:18;;;;;;;7.28;3.47;;;19.40;91.70;;;;;;5030500;28;20047;-64
2022/03/17 10:09:47;;;;;;;6.78;2.90;;;19.40;91.90;;;;;;5033887;28;20053;-64
2022/03/17 10:12:17;;;;;;;6.97;3.25;;;19.60;91.70;;;;;;5032522;28;20368;-64
2022/03/17 10:14:50;;;;;;;9.60;3.42;;;19.70;91.30;;;;;;5016351;28;20053;-66
2022/03/17 10:17:37;;;;;;;5.65;3.10;;;19.60;90.90;;;;;;5012531;28;20412;-66
2022/03/17 10:20:17;;;;;;;6.80;3.08;;;19.60;90.80;;;;;;5012504;28;20042;-65
2022/03/17 10:26:47;;;;;;;8.63;4.55;;;19.20;90.80;;;;;;5013041;28;20038;-65
2022/03/17 10:29:19;;;;;;;4.93;2.90;;;18.90;91.10;;;;;;5017532;28;20088;-65
2022/03/17 10:32:01;;;;;;;5.57;2.88;;;18.90;91.00;;;;;;5016482;28;20152;-65
2022/03/17 10:34:51;;;;;;;6.15;2.70;;;18.90;90.50;;;;;;4998972;28;20045;-65
2022/03/17 10:37:23;;;;;;;5.15;3.55;;;18.80;90.40;;;;;;5014702;28;20038;-64
2022/03/17 10:39:56;;;;;;;3.75;2.28;;;18.70;89.80;;;;;;5013652;28;20152;-65
2022/03/17 10:42:30;;;;;;;6.28;2.88;;;18.60;90.10;;;;;;5012782;28;20045;-65
2022/03/17 10:45:05;;;;;;;4.97;3.15;;;18.40;90.40;;;;;;5026558;28;20074;-66
2022/03/17 10:47:37;;;;;;;7.83;3.57;;;18.30;90.90;;;;;;4997085;28;20435;-66
2022/03/17 10:50:15;;;;;;;6.55;2.58;;;18.20;91.30;;;;;;5012246;28;20323;-66
2022/03/17 10:52:50;;;;;;;5.93;3.05;;;18.10;91.60;;;;;;4997378;28;20038;-65
2022/03/17 10:55:26;;;;;;;11.23;3.58;;;17.90;91.90;;;;;;4981950;28;20065;-65
2022/03/17 10:58:11;;;;;;;10.77;3.53;;;17.60;92.80;;;;;;5014497;28;20045;-64
2022/03/17 11:00:48;;;;;;;7.32;3.50;;;17.40;93.60;;;;;;4998106;28;20041;-64
2022/03/17 11:03:17;;;;;;;8.20;3.10;;;17.20;93.80;;;;;;5014739;28;20046;-64
2022/03/17 11:05:45;;;;;;;9.70;2.67;;;16.90;94.20;;;;;;4997467;28;20523;-64
2022/03/17 11:08:14;;;;;;;8.20;4.15;;;16.80;94.50;;;;;;4997438;28;20185;-64
2022/03/17 11:10:42;;;;;;;4.60;2.50;;;16.80;94.40;;;;;;5014089;28;20108;-64
2022/03/17 11:13:11;;;;;;;4.20;2.90;;;16.70;94.40;;;;;;5013428;28;20041;-64
2022/03/17 11:15:43;;;;;;;8.80;3.47;;;16.70;94.30;;;;;;5030268;28;20546;-64
2022/03/17 11:18:15;;;;;;;7.55;3.63;;;16.80;94.40;;;;;;5000935;28;20062;-64
2022/03/17 11:20:43;;;;;;;7.30;3.15;;;16.80;94.30;;;;;;5005562;28;20055;-64
2022/03/17 11:23:25;;;;;;;10.25;3.20;;;16.80;94.10;;;;;;5005017;28;20053;-64
2022/03/17 11:25:58;;;;;;;6.68;2.72;;;16.80;93.90;;;;;;5003230;28;20056;-64
2022/03/17 11:28:32;;;;;;;5.68;3.92;;;16.90;93.80;;;;;;5017697;28;20050;-64
2022/03/17 11:31:05;;;;;;;6.00;3.60;;;16.90;93.60;;;;;;4991684;28;20041;-64
2022/03/17 11:33:39;;;;;;;6.47;2.95;;;17.00;93.60;;;;;;5028617;28;20077;-64
2022/03/17 11:36:12;;;;;;;9.77;2.97;;;17.10;93.30;;;;;;5007750;28;20070;-64
2022/03/17 11:38:43;;;;;;;4.80;2.90;;;17.00;93.30;;;;;;5024582;28;20065;-64
2022/03/17 11:41:26;;;;;;;10.05;4.00;;;16.90;93.50;;;;;;5020850;28;20042;-64
2022/03/17 11:43:54;;;;;;;7.07;4.13;;;16.90;93.60;;;;;;5016632;28;20042;-64
2022/03/17 11:46:23;;;;;;;8.05;2.95;;;16.90;92.70;;;;;;5005414;28;20104;-64
2022/03/17 11:48:56;;;;;;;7.80;3.50;;;17.00;92.90;;;;;;4998360;28;20050;-64
2022/03/17 11:51:25;;;;;;;5.15;3.00;;;17.00;92.60;;;;;;5024720;28;20057;-64
2022/03/17 11:53:53;;;;;;;12.32;4.05;;;17.00;93.00;;;;;;5013917;28;20065;-64
2022/03/17 11:56:40;;;;;;;6.38;3.38;;;17.00;93.10;;;;;;5000111;28;20484;-65
2022/03/17 11:59:17;;;;;;;6.57;3.35;;;17.00;93.50;;;;;;5016178;28;20445;-65
2022/03/17 12:01:47;;;;;;;6.57;3.42;;;17.00;93.60;;;;;;5021015;28;20042;-64
2022/03/17 12:04:30;;;;;;;8.38;3.20;;;17.00;93.60;;;;;;5013769;28;20462;-64
2022/03/17 12:07:13;;;;;;;7.13;2.92;;;17.10;93.40;;;;;;5025591;28;20084;-64
2022/03/17 12:09:41;;;;;;;5.72;3.10;;;17.20;93.00;;;;;;4997698;28;20064;-64
2022/03/17 12:12:26;;;;;;;5.47;3.28;;;17.30;92.70;;;;;;5015486;28;20123;-64
2022/03/17 12:14:56;;;;;;;7.38;3.47;;;17.10;93.10;;;;;;5034503;28;20077;-64
2022/03/17 12:17:25;;;;;;;4.53;3.33;;;17.20;93.30;;;;;;5023288;28;20053;-64
2022/03/17 12:20:19;;;;;;;5.85;3.42;;;17.20;93.20;;;;;;5012432;28;20085;-64
2022/03/17 12:22:48;;;;;;;5.65;3.50;;;17.20;93.10;;;;;;5032016;28;20451;-65
2022/03/17 12:25:18;;;;;;;5.00;3.00;;;17.20;92.80;;;;;;5033989;28;20049;-64
2022/03/17 12:27:57;;;;;;;7.18;3.38;;;17.10;92.70;;;;;;5015980;28;20518;-64
2022/03/17 12:30:26;;;;;;;7.50;2.97;;;17.20;92.60;;;;;;5033785;28;20488;-64
2022/03/17 12:32:56;;;;;;;8.93;3.03;;;17.10;92.80;;;;;;5033592;28;20041;-64
2022/03/17 12:35:32;;;;;;;7.63;3.75;;;17.00;93.00;;;;;;5000071;28;20399;-64
2022/03/17 12:38:01;;;;;;;6.75;3.90;;;17.10;93.10;;;;;;5016323;28;20618;-64
2022/03/17 12:40:42;;;;;;;15.60;3.90;;;17.10;93.10;;;;;;5034308;28;20495;-64
2022/03/17 12:43:13;;;;;;;6.38;3.47;;;17.10;93.00;;;;;;5033047;28;20128;-64
2022/03/17 12:45:42;;;;;;;7.10;4.20;;;17.10;92.90;;;;;;5034312;28;20038;-64
2022/03/17 12:48:11;;;;;;;7.57;4.65;;;17.20;92.90;;;;;;5014587;28;20049;-64
2022/03/17 12:50:39;;;;;;;7.50;3.90;;;17.10;93.80;;;;;;5021324;28;20037;-64
2022/03/17 12:53:08;;;;;;;5.20;3.25;;;17.10;94.10;;;;;;5034547;28;20041;-64
2022/03/17 12:55:36;;;;;;;7.18;3.65;;;17.10;94.40;;;;;;5034318;28;20091;-64
2022/03/17 12:58:06;;;;;;;7.43;3.92;;;17.10;94.50;;;;;;5034235;28;20068;-64
2022/03/17 13:00:41;;;;;;;6.90;4.47;;;17.20;94.40;;;;;;5016475;28;20052;-64
2022/03/17 13:03:20;;;;;;;7.20;3.58;;;17.30;94.40;;;;;;5033902;28;20045;-64
2022/03/17 13:08:44;;;;;;;6.50;3.30;;;17.40;94.10;;;;;;5019347;28;20578;-64